createdAt,value
2022-12-24T00:01:34.846Z,2.57
2022-12-24T00:04:01.629Z,2.56
2022-12-24T00:06:28.354Z,2.57
2022-12-24T00:08:55.084Z,2.56
2022-12-24T00:11:21.907Z,2.54
2022-12-24T00:13:48.946Z,2.53
2022-12-24T00:16:15.839Z,2.51
2022-12-24T00:18:46.266Z,2.50
2022-12-24T00:21:17.221Z,2.50
2022-12-24T00:23:44.447Z,2.50
2022-12-24T00:26:12.689Z,2.49
2022-12-24T00:28:40.480Z,2.47
2022-12-24T00:31:12.799Z,2.44
2022-12-24T00:33:42.385Z,2.42
2022-12-24T00:36:09.509Z,2.41
2022-12-24T00:38:36.353Z,2.41
2022-12-24T00:41:06.064Z,2.40
2022-12-24T00:43:32.750Z,2.39
2022-12-24T00:45:59.817Z,2.37
2022-12-24T00:48:26.558Z,2.33
2022-12-24T00:50:53.314Z,2.30
2022-12-24T00:53:20.171Z,2.29
2022-12-24T00:55:46.892Z,2.31
2022-12-24T00:58:13.664Z,2.33
2022-12-24T01:00:40.497Z,2.32
2022-12-24T01:03:07.330Z,2.32
2022-12-24T01:05:36.666Z,2.30
2022-12-24T01:08:03.709Z,2.28
2022-12-24T01:10:30.449Z,2.25
2022-12-24T01:13:00.695Z,2.24
2022-12-24T01:15:28.196Z,2.24
2022-12-24T01:17:54.956Z,2.25
2022-12-24T01:20:21.855Z,2.25
2022-12-24T01:22:48.574Z,2.23
2022-12-24T01:25:15.327Z,2.21
2022-12-24T01:27:42.720Z,2.18
2022-12-24T01:30:13.814Z,2.15
2022-12-24T01:32:40.685Z,2.15
2022-12-24T01:35:09.384Z,2.15
2022-12-24T01:37:36.125Z,2.15
2022-12-24T01:40:22.305Z,2.14
2022-12-24T01:43:07.928Z,2.11
2022-12-24T01:45:51.294Z,2.05
2022-12-24T01:48:21.077Z,2.00
2022-12-24T01:50:52.955Z,1.96
2022-12-24T01:53:19.784Z,1.91
2022-12-24T01:55:47.649Z,1.90
2022-12-24T01:58:17.332Z,1.90
2022-12-24T02:00:44.355Z,1.90
2022-12-24T02:03:11.358Z,1.88
2022-12-24T02:05:54.689Z,1.85
2022-12-24T02:08:22.112Z,1.84
2022-12-24T02:10:50.090Z,1.81
2022-12-24T02:13:19.987Z,1.83
2022-12-24T02:16:06.429Z,1.83
2022-12-24T02:19:14.487Z,1.78
2022-12-24T02:22:16.126Z,1.68
2022-12-24T02:25:11.393Z,1.55
2022-12-24T02:27:54.180Z,1.49
2022-12-24T02:30:30.379Z,1.39
2022-12-24T02:33:02.015Z,1.27
2022-12-24T02:35:34.772Z,1.18
2022-12-24T02:38:13.391Z,1.05
2022-12-24T02:40:51.745Z,0.99
2022-12-24T02:43:35.061Z,0.94
2022-12-24T02:46:11.202Z,0.83
2022-12-24T02:48:41.928Z,0.71
2022-12-24T02:51:10.284Z,0.67
2022-12-24T02:53:37.561Z,0.64
2022-12-24T02:56:25.150Z,0.64
2022-12-24T02:59:13.792Z,0.65
2022-12-24T03:02:25.564Z,0.63
2022-12-24T03:04:52.470Z,0.60
2022-12-24T03:07:38.280Z,0.59
2022-12-24T03:10:30.467Z,0.55
2022-12-24T03:13:06.981Z,0.52
2022-12-24T03:15:35.624Z,0.54
2022-12-24T03:18:03.296Z,0.57
2022-12-24T03:20:36.451Z,0.59
2022-12-24T03:23:04.245Z,0.59
2022-12-24T03:25:33.368Z,0.59
2022-12-24T03:28:04.511Z,0.59
2022-12-24T03:30:32.188Z,0.62
2022-12-24T03:32:58.942Z,0.66
2022-12-24T03:35:26.242Z,0.71
2022-12-24T03:37:53.025Z,0.74
2022-12-24T03:40:19.740Z,0.73
2022-12-24T03:42:46.497Z,0.72
2022-12-24T03:45:13.335Z,0.71
2022-12-24T03:47:40.199Z,0.71
2022-12-24T03:50:07.341Z,0.71
2022-12-24T03:52:34.137Z,0.73
2022-12-24T03:55:00.866Z,0.73
2022-12-24T03:57:27.688Z,0.72
2022-12-24T03:59:54.598Z,0.68
2022-12-24T04:02:21.547Z,0.67
2022-12-24T04:04:48.467Z,0.67
2022-12-24T04:07:15.403Z,0.69
2022-12-24T04:09:42.219Z,0.72
2022-12-24T04:12:09.022Z,0.76
2022-12-24T04:14:35.816Z,0.80
2022-12-24T04:17:02.565Z,0.78
2022-12-24T04:19:29.316Z,0.77
2022-12-24T04:21:56.166Z,0.76
2022-12-24T04:24:23.068Z,0.78
2022-12-24T04:26:49.884Z,0.83
2022-12-24T04:29:16.613Z,0.89
2022-12-24T04:31:43.376Z,0.95
2022-12-24T04:34:10.152Z,1.00
2022-12-24T04:36:38.292Z,1.03
2022-12-24T04:39:05.044Z,1.06
2022-12-24T04:41:31.779Z,1.06
2022-12-24T04:43:59.334Z,1.07
2022-12-24T04:46:31.468Z,1.05
2022-12-24T04:48:59.050Z,1.04
2022-12-24T04:51:26.645Z,1.05
2022-12-24T04:53:54.167Z,1.05
2022-12-24T04:56:24.170Z,1.06
2022-12-24T04:58:51.508Z,1.06
2022-12-24T05:01:23.916Z,1.06
2022-12-24T05:03:51.559Z,1.07
2022-12-24T05:06:21.677Z,1.09
2022-12-24T05:08:48.712Z,1.12
2022-12-24T05:11:16.345Z,1.12
2022-12-24T05:13:46.962Z,1.12
2022-12-24T05:16:17.062Z,1.09
2022-12-24T05:18:44.297Z,1.04
2022-12-24T05:21:14.591Z,1.00
2022-12-24T05:24:00.435Z,0.98
2022-12-24T05:26:58.121Z,0.95
2022-12-24T05:29:24.920Z,0.92
2022-12-24T05:31:51.711Z,0.92
2022-12-24T05:34:18.521Z,0.93
2022-12-24T05:36:45.420Z,0.94
2022-12-24T05:39:16.821Z,0.94
2022-12-24T05:41:45.736Z,0.93
2022-12-24T05:44:13.857Z,0.92
2022-12-24T05:46:40.872Z,0.93
2022-12-24T05:49:08.289Z,0.92
2022-12-24T05:51:35.138Z,0.90
2022-12-24T05:54:01.993Z,0.87
2022-12-24T05:56:28.770Z,0.82
2022-12-24T05:58:55.747Z,0.77
2022-12-24T06:01:23.311Z,0.74
2022-12-24T06:03:51.236Z,0.72
2022-12-24T06:06:21.343Z,0.74
2022-12-24T06:08:49.606Z,0.77
2022-12-24T06:11:18.861Z,0.79
2022-12-24T06:13:46.014Z,0.80
2022-12-24T06:16:16.082Z,0.82
2022-12-24T06:18:43.400Z,0.82
2022-12-24T06:21:10.806Z,0.84
2022-12-24T06:23:39.435Z,0.86
2022-12-24T06:26:08.069Z,0.88
2022-12-24T06:28:37.267Z,0.91
2022-12-24T06:31:05.784Z,0.93
2022-12-24T06:33:33.607Z,0.93
2022-12-24T06:36:00.693Z,0.94
2022-12-24T06:38:29.667Z,0.93
2022-12-24T06:40:56.509Z,0.89
2022-12-24T06:43:23.256Z,0.84
2022-12-24T06:45:50.271Z,0.80
2022-12-24T06:48:17.103Z,0.75
2022-12-24T06:50:44.364Z,0.69
2022-12-24T06:53:12.220Z,0.65
2022-12-24T06:55:39.079Z,0.63
2022-12-24T06:58:05.919Z,0.60
2022-12-24T07:00:33.067Z,0.58
2022-12-24T07:03:00.399Z,0.58
2022-12-24T07:05:27.914Z,0.58
2022-12-24T07:07:54.925Z,0.57
2022-12-24T07:10:22.246Z,0.54
2022-12-24T07:12:49.426Z,0.50
2022-12-24T07:15:16.879Z,0.42
2022-12-24T07:17:43.970Z,0.33
2022-12-24T07:20:16.173Z,0.27
2022-12-24T07:22:42.922Z,0.24
2022-12-24T07:25:10.976Z,0.23
2022-12-24T07:27:38.534Z,0.20
2022-12-24T07:30:06.570Z,0.19
2022-12-24T07:32:33.615Z,0.17
2022-12-24T07:35:00.421Z,0.14
2022-12-24T07:37:27.130Z,0.12
2022-12-24T07:39:54.210Z,0.11
2022-12-24T07:42:21.424Z,0.12
2022-12-24T07:44:48.402Z,0.14
2022-12-24T07:47:15.254Z,0.17
2022-12-24T07:49:42.545Z,0.17
2022-12-24T07:52:09.360Z,0.18
2022-12-24T07:54:36.121Z,0.20
2022-12-24T07:57:02.872Z,0.18
2022-12-24T07:59:29.721Z,0.17
2022-12-24T08:01:56.668Z,0.17
2022-12-24T08:04:23.576Z,0.17
2022-12-24T08:06:50.379Z,0.20
2022-12-24T08:09:17.260Z,0.25
2022-12-24T08:11:51.347Z,0.27
2022-12-24T08:14:19.353Z,0.30
2022-12-24T08:16:46.157Z,0.32
2022-12-24T08:19:13.090Z,0.32
2022-12-24T08:21:40.048Z,0.33
2022-12-24T08:24:07.074Z,0.36
2022-12-24T08:26:33.817Z,0.41
2022-12-24T08:29:01.801Z,0.46
2022-12-24T08:31:28.556Z,0.48
2022-12-24T08:33:55.584Z,0.51
2022-12-24T08:36:22.338Z,0.53
2022-12-24T08:38:49.181Z,0.55
2022-12-24T08:41:16.007Z,0.59
2022-12-24T08:43:42.752Z,0.59
2022-12-24T08:46:10.108Z,0.57
2022-12-24T08:48:37.061Z,0.59
2022-12-24T08:51:09.315Z,0.60
2022-12-24T08:53:37.295Z,0.60
2022-12-24T08:56:06.389Z,0.58
2022-12-24T08:58:36.111Z,0.54
2022-12-24T09:01:12.247Z,0.52
2022-12-24T09:03:39.497Z,0.50
2022-12-24T09:06:07.202Z,0.51
2022-12-24T09:08:34.896Z,0.52
2022-12-24T09:11:13.022Z,0.53
2022-12-24T09:13:40.626Z,0.55
2022-12-24T09:16:08.860Z,0.56
2022-12-24T09:18:36.262Z,0.58
2022-12-24T09:21:06.612Z,0.58
2022-12-24T09:23:41.376Z,0.58
2022-12-24T09:26:32.897Z,0.59
2022-12-24T09:29:02.493Z,0.59
2022-12-24T09:31:29.487Z,0.63
2022-12-24T09:33:56.416Z,0.67
2022-12-24T09:36:23.173Z,0.72
2022-12-24T09:38:50.030Z,0.74
2022-12-24T09:41:44.744Z,0.75
2022-12-24T09:44:26.934Z,0.75
2022-12-24T09:46:54.500Z,0.74
2022-12-24T09:49:26.734Z,0.76
2022-12-24T09:52:04.473Z,0.78
2022-12-24T09:54:36.088Z,0.80
2022-12-24T09:57:41.322Z,0.80
2022-12-24T10:00:20.958Z,0.82
2022-12-24T10:02:48.109Z,0.84
2022-12-24T10:05:18.578Z,0.88
2022-12-24T10:08:01.307Z,0.95
2022-12-24T10:10:48.886Z,1.03
2022-12-24T10:13:20.780Z,1.09
2022-12-24T10:16:08.502Z,1.14
2022-12-24T10:18:49.985Z,1.22
2022-12-24T10:21:45.550Z,1.29
2022-12-24T10:24:21.341Z,1.35
2022-12-24T10:26:56.692Z,1.42
2022-12-24T10:29:29.358Z,1.48
2022-12-24T10:32:16.188Z,1.52
2022-12-24T10:34:51.226Z,1.59
2022-12-24T10:37:28.974Z,1.67
2022-12-24T10:39:58.909Z,1.72
2022-12-24T10:42:51.061Z,1.78
2022-12-24T10:45:23.582Z,1.80
2022-12-24T10:47:56.819Z,1.86
2022-12-24T10:50:33.233Z,1.91
2022-12-24T10:53:21.555Z,1.94
2022-12-24T10:55:48.719Z,2.02
2022-12-24T10:58:19.086Z,2.06
2022-12-24T11:00:51.315Z,2.06
2022-12-24T11:03:18.570Z,2.04
2022-12-24T11:12:14.522Z,1.98
2022-12-24T11:15:45.102Z,1.91
2022-12-24T11:28:12.771Z,2.13
2022-12-24T11:31:50.057Z,2.21
2022-12-24T11:34:47.885Z,2.30
2022-12-24T11:37:15.709Z,2.30
2022-12-24T11:40:57.259Z,2.42
2022-12-24T11:43:49.522Z,2.45
2022-12-24T11:50:46.614Z,2.39
2022-12-24T12:12:24.673Z,2.91
2022-12-24T12:15:21.875Z,2.94
2022-12-24T12:18:18.925Z,2.98
2022-12-24T12:20:45.666Z,2.99
2022-12-24T12:23:30.887Z,3.00
2022-12-24T12:26:04.025Z,3.03
2022-12-24T12:28:57.130Z,3.01
2022-12-24T12:31:47.314Z,2.98
2022-12-24T12:34:46.868Z,2.94
2022-12-24T12:37:28.181Z,2.92
2022-12-24T12:39:55.078Z,2.91
2022-12-24T12:42:31.028Z,2.85
2022-12-24T12:45:13.370Z,2.84
2022-12-24T12:47:55.537Z,2.86
2022-12-24T12:50:22.274Z,2.88
2022-12-24T12:53:16.928Z,2.90
2022-12-24T12:56:06.350Z,2.90
2022-12-24T12:58:41.043Z,2.91
2022-12-24T13:01:21.462Z,2.91
2022-12-24T13:04:19.628Z,2.91
2022-12-24T13:07:38.345Z,2.94
2022-12-24T13:10:25.791Z,2.96
2022-12-24T13:13:16.906Z,2.93
2022-12-24T13:16:15.052Z,2.92
2022-12-24T13:19:11.039Z,2.94
2022-12-24T13:21:44.083Z,2.98
2022-12-24T13:24:31.308Z,3.01
2022-12-24T13:27:18.119Z,3.04
2022-12-24T13:29:53.050Z,3.07
2022-12-24T13:32:19.686Z,3.06
2022-12-24T13:34:49.388Z,3.01
2022-12-24T13:37:32.670Z,3.04
2022-12-24T13:40:15.274Z,3.03
2022-12-24T13:42:57.592Z,3.03
2022-12-24T13:45:30.546Z,3.03
2022-12-24T13:48:17.174Z,3.02
2022-12-24T13:50:48.160Z,3.00
2022-12-24T13:53:28.160Z,2.98
2022-12-24T13:55:57.648Z,2.96
2022-12-24T13:58:25.677Z,2.92
2022-12-24T14:00:57.882Z,2.90
2022-12-24T14:03:27.754Z,2.89
2022-12-24T14:06:06.369Z,2.89
2022-12-24T14:08:38.241Z,2.87
2022-12-24T14:11:18.194Z,2.85
2022-12-24T14:13:48.959Z,2.85
2022-12-24T14:16:25.519Z,2.84
2022-12-24T14:19:02.085Z,2.85
2022-12-24T14:21:36.140Z,2.87
2022-12-24T14:24:17.378Z,2.87
2022-12-24T14:26:49.822Z,2.91
2022-12-24T14:29:32.267Z,2.91
2022-12-24T14:32:03.716Z,2.91
2022-12-24T14:34:31.564Z,2.93
2022-12-24T14:37:02.952Z,2.96
2022-12-24T14:39:37.210Z,2.99
2022-12-24T14:42:17.974Z,3.02
2022-12-24T14:44:53.967Z,3.03
2022-12-24T14:47:39.349Z,3.02
2022-12-24T14:50:35.888Z,2.99
2022-12-24T14:53:19.323Z,2.96
2022-12-24T14:55:48.630Z,2.92
2022-12-24T15:19:25.141Z,2.92
2022-12-24T15:21:53.111Z,2.93
2022-12-24T15:24:34.244Z,2.93
2022-12-24T15:27:25.120Z,2.92
2022-12-24T15:30:09.661Z,2.89
2022-12-24T15:32:52.415Z,2.85
2022-12-24T15:35:54.861Z,2.84
2022-12-24T15:39:07.355Z,2.82
2022-12-24T15:42:10.345Z,2.76
2022-12-24T15:44:39.876Z,2.79
2022-12-24T15:47:13.965Z,2.79
2022-12-24T15:49:47.632Z,2.76
2022-12-24T15:52:17.666Z,2.75
2022-12-24T15:54:50.757Z,2.74
2022-12-24T15:57:32.363Z,2.76
2022-12-24T16:00:01.575Z,2.79
2022-12-24T16:02:45.079Z,2.79
2022-12-24T16:05:21.855Z,2.78
2022-12-24T16:08:30.312Z,2.76
2022-12-24T16:11:17.058Z,2.76
2022-12-24T16:14:06.931Z,2.79
2022-12-24T16:16:37.543Z,2.81
2022-12-24T16:19:07.890Z,2.80
2022-12-24T16:21:40.276Z,2.78
2022-12-24T16:24:28.751Z,2.78
2022-12-24T16:26:57.211Z,2.77
2022-12-24T16:29:24.073Z,2.76
2022-12-24T16:31:53.811Z,2.78
2022-12-24T16:34:25.066Z,2.80
2022-12-24T16:36:52.683Z,2.84
2022-12-24T16:39:23.909Z,2.88
2022-12-24T16:42:31.095Z,2.90
2022-12-24T16:44:57.910Z,2.92
2022-12-24T16:47:32.390Z,2.92
2022-12-24T16:50:02.901Z,2.93
2022-12-24T16:52:33.006Z,2.95
2022-12-24T16:55:00.678Z,2.96
2022-12-24T16:57:28.072Z,3.00
2022-12-24T16:59:55.071Z,3.01
2022-12-24T17:02:24.480Z,3.03
2022-12-24T17:04:51.715Z,3.02
2022-12-24T17:07:20.869Z,3.00
2022-12-24T17:09:48.167Z,2.89
2022-12-24T17:12:16.833Z,2.93
2022-12-24T17:14:43.639Z,2.92
2022-12-24T17:17:22.147Z,2.94
2022-12-24T17:19:49.017Z,2.97
2022-12-24T17:22:16.330Z,3.00
2022-12-24T17:24:43.383Z,3.01
2022-12-24T17:27:10.788Z,3.02
2022-12-24T17:29:37.769Z,3.03
2022-12-24T17:32:04.713Z,3.04
2022-12-24T17:34:31.739Z,3.04
2022-12-24T17:36:59.137Z,3.08
2022-12-24T17:39:28.042Z,3.10
2022-12-24T17:41:55.067Z,3.12
2022-12-24T17:44:22.097Z,3.13
2022-12-24T17:46:49.274Z,3.12
2022-12-24T17:49:16.080Z,3.11
2022-12-24T17:51:45.677Z,3.11
2022-12-24T17:54:13.174Z,3.12
2022-12-24T17:56:40.037Z,3.12
2022-12-24T17:59:06.834Z,3.14
2022-12-24T18:01:34.039Z,3.15
2022-12-24T18:04:02.596Z,3.16
2022-12-24T18:06:29.624Z,3.15
2022-12-24T18:08:56.761Z,3.12
2022-12-24T18:11:32.786Z,3.10
2022-12-24T18:14:01.573Z,3.10
2022-12-24T18:16:31.716Z,3.10
2022-12-24T18:18:59.014Z,3.12
2022-12-24T18:21:29.398Z,3.15
2022-12-24T18:23:56.521Z,3.16
2022-12-24T18:26:25.973Z,3.15
2022-12-24T18:28:54.815Z,3.15
2022-12-24T18:31:22.571Z,3.13
2022-12-24T18:33:51.005Z,3.13
2022-12-24T18:36:18.937Z,3.14
2022-12-24T18:41:32.135Z,3.14
2022-12-24T18:44:01.348Z,3.13
2022-12-24T18:46:31.653Z,3.12
2022-12-24T18:49:00.219Z,3.12
2022-12-24T18:51:31.064Z,3.13
2022-12-24T18:54:12.557Z,3.14
2022-12-24T18:57:11.319Z,3.16
2022-12-24T18:59:50.074Z,3.17
2022-12-24T19:02:21.543Z,3.20
2022-12-24T19:06:04.118Z,3.19
2022-12-24T19:11:59.805Z,3.13
2022-12-24T19:30:35.631Z,3.12
2022-12-24T19:33:40.420Z,3.06
2022-12-24T19:43:50.254Z,3.05
2022-12-24T19:46:21.038Z,3.04
2022-12-24T20:02:44.251Z,3.07
2022-12-24T20:05:56.697Z,3.07
2022-12-24T20:27:39.250Z,3.09
2022-12-24T20:35:16.874Z,3.03
2022-12-24T20:42:20.535Z,3.03
2022-12-24T20:45:05.275Z,3.05
2022-12-24T20:47:44.872Z,3.07
2022-12-24T20:50:26.775Z,3.08
2022-12-24T20:57:01.460Z,2.95
2022-12-24T20:59:42.901Z,2.92
2022-12-24T21:05:42.029Z,2.98
2022-12-24T21:12:55.846Z,3.03
2022-12-24T21:15:55.941Z,3.02
2022-12-24T21:18:41.021Z,3.00
2022-12-24T21:21:18.468Z,2.97
2022-12-24T21:24:16.699Z,3.01
2022-12-24T21:26:57.462Z,3.04
2022-12-24T21:29:32.713Z,3.06
2022-12-24T21:32:13.496Z,3.07
2022-12-24T21:34:41.550Z,3.06
2022-12-24T21:37:55.394Z,3.06
2022-12-24T21:40:24.257Z,3.05
2022-12-24T21:47:46.790Z,3.15
2022-12-24T21:50:33.537Z,3.18
2022-12-24T21:56:28.346Z,3.16
2022-12-24T21:59:01.669Z,3.20
2022-12-24T22:01:29.951Z,3.20
2022-12-24T22:03:57.760Z,3.22
2022-12-24T22:06:44.884Z,3.24
2022-12-24T22:09:33.432Z,3.24
2022-12-24T22:13:13.538Z,3.25
2022-12-24T22:16:02.231Z,3.23
2022-12-24T22:22:57.291Z,3.26
2022-12-24T22:25:25.395Z,3.27
2022-12-24T22:27:52.781Z,3.28
2022-12-24T22:30:20.065Z,3.28
2022-12-24T22:32:51.981Z,3.29
2022-12-24T22:35:25.151Z,3.28
2022-12-24T22:38:00.126Z,3.25
2022-12-24T22:40:35.777Z,3.25
2022-12-24T22:43:09.821Z,3.23
2022-12-24T22:45:39.086Z,3.22
2022-12-24T22:48:11.125Z,3.23
2022-12-24T22:50:46.263Z,3.24
2022-12-24T22:53:32.659Z,3.26
2022-12-24T22:56:15.137Z,3.27
2022-12-24T22:58:54.693Z,3.27
2022-12-24T23:01:39.312Z,3.31
2022-12-24T23:04:08.825Z,3.33
2022-12-24T23:06:38.249Z,3.37
2022-12-24T23:09:06.884Z,3.39
2022-12-24T23:11:33.812Z,3.39
2022-12-24T23:14:19.410Z,3.38
2022-12-24T23:16:46.550Z,3.37
2022-12-24T23:19:13.723Z,3.36
2022-12-24T23:21:41.200Z,3.37
2022-12-24T23:24:10.271Z,3.38
2022-12-24T23:26:37.544Z,3.38
2022-12-24T23:29:06.079Z,3.40
2022-12-24T23:31:34.281Z,3.44
2022-12-24T23:34:02.503Z,3.46
2022-12-24T23:36:29.681Z,3.47
2022-12-24T23:38:57.881Z,3.47
2022-12-24T23:41:25.113Z,3.48
2022-12-24T23:43:52.123Z,3.49
2022-12-24T23:46:20.307Z,3.52
2022-12-24T23:48:47.937Z,3.54
2022-12-24T23:51:17.440Z,3.55
2022-12-24T23:53:45.396Z,3.55
2022-12-24T23:56:13.096Z,3.53
2022-12-24T23:58:41.322Z,3.52
